sensor_id;sensor_type;location;lat;lon;timestamp;temperature;humidity
35668;DHT22;22158;59.280;17.806;2022-08-19T00:01:48;19.90;99.90
35668;DHT22;22158;59.280;17.806;2022-08-19T00:04:16;19.80;99.90
35668;DHT22;22158;59.280;17.806;2022-08-19T00:06:44;19.80;99.90
35668;DHT22;22158;59.280;17.806;2022-08-19T00:09:14;19.80;99.90
35668;DHT22;22158;59.280;17.806;2022-08-19T00:11:42;19.80;99.90
35668;DHT22;22158;59.280;17.806;2022-08-19T00:14:11;19.70;99.90
35668;DHT22;22158;59.280;17.806;2022-08-19T00:16:38;19.70;99.90
35668;DHT22;22158;59.280;17.806;2022-08-19T00:19:05;19.70;99.90
35668;DHT22;22158;59.280;17.806;2022-08-19T00:21:31;19.70;99.90
35668;DHT22;22158;59.280;17.806;2022-08-19T00:23:57;19.70;99.90
35668;DHT22;22158;59.280;17.806;2022-08-19T00:26:25;19.70;99.90
35668;DHT22;22158;59.280;17.806;2022-08-19T00:28:51;19.70;99.90
35668;DHT22;22158;59.280;17.806;2022-08-19T00:31:16;19.70;99.90
35668;DHT22;22158;59.280;17.806;2022-08-19T00:33:42;19.70;99.90
35668;DHT22;22158;59.280;17.806;2022-08-19T00:36:09;19.70;99.90
35668;DHT22;22158;59.280;17.806;2022-08-19T00:38:38;19.70;99.90
35668;DHT22;22158;59.280;17.806;2022-08-19T00:41:07;19.70;99.90
35668;DHT22;22158;59.280;17.806;2022-08-19T00:43:34;19.70;99.90
35668;DHT22;22158;59.280;17.806;2022-08-19T00:46:00;19.70;99.90
35668;DHT22;22158;59.280;17.806;2022-08-19T00:48:31;19.70;99.90
35668;DHT22;22158;59.280;17.806;2022-08-19T00:50:57;19.70;99.90
35668;DHT22;22158;59.280;17.806;2022-08-19T00:53:26;19.70;99.90
35668;DHT22;22158;59.280;17.806;2022-08-19T00:55:55;19.70;99.90
35668;DHT22;22158;59.280;17.806;2022-08-19T00:58:25;19.70;99.90
35668;DHT22;22158;59.280;17.806;2022-08-19T01:00:52;19.70;99.90
35668;DHT22;22158;59.280;17.806;2022-08-19T01:03:20;19.70;99.90
35668;DHT22;22158;59.280;17.806;2022-08-19T01:05:48;19.70;99.90
35668;DHT22;22158;59.280;17.806;2022-08-19T01:08:16;19.70;99.90
35668;DHT22;22158;59.280;17.806;2022-08-19T01:10:54;19.80;99.90
35668;DHT22;22158;59.280;17.806;2022-08-19T01:13:23;19.80;99.90
35668;DHT22;22158;59.280;17.806;2022-08-19T01:15:56;19.80;99.90
35668;DHT22;22158;59.280;17.806;2022-08-19T01:18:23;19.80;99.90
35668;DHT22;22158;59.280;17.806;2022-08-19T01:20:50;19.80;99.90
35668;DHT22;22158;59.280;17.806;2022-08-19T01:23:17;19.80;99.90
35668;DHT22;22158;59.280;17.806;2022-08-19T01:25:52;19.80;99.90
35668;DHT22;22158;59.280;17.806;2022-08-19T01:28:23;19.80;99.90
35668;DHT22;22158;59.280;17.806;2022-08-19T01:30:52;19.80;99.90
35668;DHT22;22158;59.280;17.806;2022-08-19T01:33:19;19.80;99.90
35668;DHT22;22158;59.280;17.806;2022-08-19T01:35:46;19.90;99.90
35668;DHT22;22158;59.280;17.806;2022-08-19T01:38:26;19.90;99.90
35668;DHT22;22158;59.280;17.806;2022-08-19T01:40:53;19.90;99.90
35668;DHT22;22158;59.280;17.806;2022-08-19T01:43:19;19.80;99.90
35668;DHT22;22158;59.280;17.806;2022-08-19T01:45:46;19.90;99.90
35668;DHT22;22158;59.280;17.806;2022-08-19T01:48:12;19.90;99.90
35668;DHT22;22158;59.280;17.806;2022-08-19T01:50:38;19.90;99.90
35668;DHT22;22158;59.280;17.806;2022-08-19T01:53:06;19.90;99.90
35668;DHT22;22158;59.280;17.806;2022-08-19T01:55:38;19.90;99.90
35668;DHT22;22158;59.280;17.806;2022-08-19T01:58:05;19.90;99.90
35668;DHT22;22158;59.280;17.806;2022-08-19T02:00:32;19.90;99.90
35668;DHT22;22158;59.280;17.806;2022-08-19T02:02:58;19.90;99.90
35668;DHT22;22158;59.280;17.806;2022-08-19T02:05:27;19.90;99.90
35668;DHT22;22158;59.280;17.806;2022-08-19T02:07:55;19.90;99.90
35668;DHT22;22158;59.280;17.806;2022-08-19T02:10:21;19.90;99.90
35668;DHT22;22158;59.280;17.806;2022-08-19T02:12:48;19.90;99.90
35668;DHT22;22158;59.280;17.806;2022-08-19T02:15:15;19.80;99.90
35668;DHT22;22158;59.280;17.806;2022-08-19T02:17:41;19.80;99.90
35668;DHT22;22158;59.280;17.806;2022-08-19T02:20:07;19.80;99.90
35668;DHT22;22158;59.280;17.806;2022-08-19T02:22:33;19.80;99.90
35668;DHT22;22158;59.280;17.806;2022-08-19T02:25:01;19.80;99.90
35668;DHT22;22158;59.280;17.806;2022-08-19T02:27:27;19.80;99.90
35668;DHT22;22158;59.280;17.806;2022-08-19T02:29:53;19.90;99.90
35668;DHT22;22158;59.280;17.806;2022-08-19T02:32:19;19.90;99.90
35668;DHT22;22158;59.280;17.806;2022-08-19T02:34:46;19.90;99.90
35668;DHT22;22158;59.280;17.806;2022-08-19T02:37:12;19.90;99.90
35668;DHT22;22158;59.280;17.806;2022-08-19T02:39:57;19.90;99.90
35668;DHT22;22158;59.280;17.806;2022-08-19T02:42:23;19.90;99.90
35668;DHT22;22158;59.280;17.806;2022-08-19T02:44:49;19.90;99.90
35668;DHT22;22158;59.280;17.806;2022-08-19T02:47:15;19.90;99.90
35668;DHT22;22158;59.280;17.806;2022-08-19T02:49:41;19.90;99.90
35668;DHT22;22158;59.280;17.806;2022-08-19T02:52:07;19.90;99.90
35668;DHT22;22158;59.280;17.806;2022-08-19T02:54:32;19.90;99.90
35668;DHT22;22158;59.280;17.806;2022-08-19T02:56:58;19.90;99.90
35668;DHT22;22158;59.280;17.806;2022-08-19T02:59:24;19.90;99.90
35668;DHT22;22158;59.280;17.806;2022-08-19T03:01:52;19.90;99.90
35668;DHT22;22158;59.280;17.806;2022-08-19T03:04:18;19.90;99.90
35668;DHT22;22158;59.280;17.806;2022-08-19T03:06:47;19.90;99.90
35668;DHT22;22158;59.280;17.806;2022-08-19T03:09:13;19.90;99.90
35668;DHT22;22158;59.280;17.806;2022-08-19T03:11:39;20.00;99.90
35668;DHT22;22158;59.280;17.806;2022-08-19T03:14:07;20.00;99.90
35668;DHT22;22158;59.280;17.806;2022-08-19T03:16:39;20.00;99.90
35668;DHT22;22158;59.280;17.806;2022-08-19T03:19:05;20.00;99.90
35668;DHT22;22158;59.280;17.806;2022-08-19T03:21:32;19.90;99.90
35668;DHT22;22158;59.280;17.806;2022-08-19T03:24:03;19.90;99.90
35668;DHT22;22158;59.280;17.806;2022-08-19T03:26:29;19.90;99.90
35668;DHT22;22158;59.280;17.806;2022-08-19T03:28:55;19.90;99.90
35668;DHT22;22158;59.280;17.806;2022-08-19T03:31:22;19.90;99.90
35668;DHT22;22158;59.280;17.806;2022-08-19T03:33:49;20.00;99.90
35668;DHT22;22158;59.280;17.806;2022-08-19T03:36:18;20.00;99.90
35668;DHT22;22158;59.280;17.806;2022-08-19T03:38:58;20.00;99.90
35668;DHT22;22158;59.280;17.806;2022-08-19T03:41:29;19.90;99.90
35668;DHT22;22158;59.280;17.806;2022-08-19T03:43:56;19.90;99.90
35668;DHT22;22158;59.280;17.806;2022-08-19T03:46:26;19.90;99.90
35668;DHT22;22158;59.280;17.806;2022-08-19T03:48:54;20.00;99.90
35668;DHT22;22158;59.280;17.806;2022-08-19T03:51:30;20.00;99.90
35668;DHT22;22158;59.280;17.806;2022-08-19T03:53:57;20.00;99.90
35668;DHT22;22158;59.280;17.806;2022-08-19T03:56:24;20.00;99.90
35668;DHT22;22158;59.280;17.806;2022-08-19T03:58:57;20.10;99.90
35668;DHT22;22158;59.280;17.806;2022-08-19T04:01:25;20.10;99.90
35668;DHT22;22158;59.280;17.806;2022-08-19T04:03:52;20.10;99.90
35668;DHT22;22158;59.280;17.806;2022-08-19T04:06:28;20.00;99.90
35668;DHT22;22158;59.280;17.806;2022-08-19T04:08:56;20.10;99.90
35668;DHT22;22158;59.280;17.806;2022-08-19T04:11:26;20.00;99.90
35668;DHT22;22158;59.280;17.806;2022-08-19T04:13:54;20.00;99.90
35668;DHT22;22158;59.280;17.806;2022-08-19T04:16:21;20.00;99.90
35668;DHT22;22158;59.280;17.806;2022-08-19T04:18:48;20.00;99.90
35668;DHT22;22158;59.280;17.806;2022-08-19T04:21:20;20.10;99.90
35668;DHT22;22158;59.280;17.806;2022-08-19T04:23:46;20.10;99.90
35668;DHT22;22158;59.280;17.806;2022-08-19T04:26:14;20.10;99.90
35668;DHT22;22158;59.280;17.806;2022-08-19T04:28:41;20.10;99.90
35668;DHT22;22158;59.280;17.806;2022-08-19T04:31:13;20.20;99.90
35668;DHT22;22158;59.280;17.806;2022-08-19T04:33:39;20.20;99.90
35668;DHT22;22158;59.280;17.806;2022-08-19T04:36:05;20.20;99.90
35668;DHT22;22158;59.280;17.806;2022-08-19T04:38:31;20.20;99.90
35668;DHT22;22158;59.280;17.806;2022-08-19T04:40:57;20.30;99.90
35668;DHT22;22158;59.280;17.806;2022-08-19T04:43:41;20.30;99.90
35668;DHT22;22158;59.280;17.806;2022-08-19T04:46:09;20.30;99.90
35668;DHT22;22158;59.280;17.806;2022-08-19T04:48:36;20.30;99.90
35668;DHT22;22158;59.280;17.806;2022-08-19T04:51:08;20.30;99.90
35668;DHT22;22158;59.280;17.806;2022-08-19T04:53:36;20.40;99.90
35668;DHT22;22158;59.280;17.806;2022-08-19T04:56:09;20.40;99.90
35668;DHT22;22158;59.280;17.806;2022-08-19T04:58:36;20.40;99.90
35668;DHT22;22158;59.280;17.806;2022-08-19T05:01:03;20.40;99.90
35668;DHT22;22158;59.280;17.806;2022-08-19T05:03:28;20.50;99.90
35668;DHT22;22158;59.280;17.806;2022-08-19T05:05:58;20.50;99.90
35668;DHT22;22158;59.280;17.806;2022-08-19T05:08:24;20.50;99.90
35668;DHT22;22158;59.280;17.806;2022-08-19T05:10:51;20.50;99.90
35668;DHT22;22158;59.280;17.806;2022-08-19T05:13:18;20.60;99.90
35668;DHT22;22158;59.280;17.806;2022-08-19T05:15:52;20.70;99.90
35668;DHT22;22158;59.280;17.806;2022-08-19T05:18:18;20.70;99.90
35668;DHT22;22158;59.280;17.806;2022-08-19T05:21:09;20.60;99.90
35668;DHT22;22158;59.280;17.806;2022-08-19T05:23:53;20.60;99.90
35668;DHT22;22158;59.280;17.806;2022-08-19T05:26:19;20.70;99.90
35668;DHT22;22158;59.280;17.806;2022-08-19T05:28:44;20.70;99.90
35668;DHT22;22158;59.280;17.806;2022-08-19T05:31:10;20.60;99.90
35668;DHT22;22158;59.280;17.806;2022-08-19T05:33:36;20.70;99.90
35668;DHT22;22158;59.280;17.806;2022-08-19T05:36:02;20.70;99.90
35668;DHT22;22158;59.280;17.806;2022-08-19T05:38:28;20.70;99.90
35668;DHT22;22158;59.280;17.806;2022-08-19T05:40:55;20.70;99.90
35668;DHT22;22158;59.280;17.806;2022-08-19T05:43:21;20.70;99.90
35668;DHT22;22158;59.280;17.806;2022-08-19T05:45:47;20.80;99.90
35668;DHT22;22158;59.280;17.806;2022-08-19T05:48:13;20.80;99.90
35668;DHT22;22158;59.280;17.806;2022-08-19T05:50:40;20.90;99.90
35668;DHT22;22158;59.280;17.806;2022-08-19T05:53:06;20.90;99.90
35668;DHT22;22158;59.280;17.806;2022-08-19T05:55:34;20.90;99.90
35668;DHT22;22158;59.280;17.806;2022-08-19T05:58:00;21.00;99.90
35668;DHT22;22158;59.280;17.806;2022-08-19T06:00:27;21.10;99.90
35668;DHT22;22158;59.280;17.806;2022-08-19T06:02:52;21.10;99.90
35668;DHT22;22158;59.280;17.806;2022-08-19T06:05:19;21.20;99.90
35668;DHT22;22158;59.280;17.806;2022-08-19T06:07:45;21.20;99.90
35668;DHT22;22158;59.280;17.806;2022-08-19T06:10:11;21.30;99.90
35668;DHT22;22158;59.280;17.806;2022-08-19T06:12:37;21.40;99.90
35668;DHT22;22158;59.280;17.806;2022-08-19T06:15:09;21.60;99.90
35668;DHT22;22158;59.280;17.806;2022-08-19T06:17:36;21.60;99.90
35668;DHT22;22158;59.280;17.806;2022-08-19T06:20:13;21.60;99.90
35668;DHT22;22158;59.280;17.806;2022-08-19T06:22:43;21.70;99.90
35668;DHT22;22158;59.280;17.806;2022-08-19T06:25:11;21.70;99.90
35668;DHT22;22158;59.280;17.806;2022-08-19T06:27:38;21.70;99.90
35668;DHT22;22158;59.280;17.806;2022-08-19T06:30:04;21.70;99.90
35668;DHT22;22158;59.280;17.806;2022-08-19T06:32:30;21.70;99.90
35668;DHT22;22158;59.280;17.806;2022-08-19T06:34:56;21.80;99.90
35668;DHT22;22158;59.280;17.806;2022-08-19T06:37:22;21.80;99.90
35668;DHT22;22158;59.280;17.806;2022-08-19T06:39:48;21.90;99.90
35668;DHT22;22158;59.280;17.806;2022-08-19T06:42:14;21.90;99.90
35668;DHT22;22158;59.280;17.806;2022-08-19T06:44:44;22.00;99.90
35668;DHT22;22158;59.280;17.806;2022-08-19T06:47:13;22.00;99.90
35668;DHT22;22158;59.280;17.806;2022-08-19T06:49:39;22.00;99.90
35668;DHT22;22158;59.280;17.806;2022-08-19T06:52:05;22.10;99.90
35668;DHT22;22158;59.280;17.806;2022-08-19T06:54:31;22.20;99.90
35668;DHT22;22158;59.280;17.806;2022-08-19T06:56:59;22.30;99.90
35668;DHT22;22158;59.280;17.806;2022-08-19T06:59:28;22.40;99.90
35668;DHT22;22158;59.280;17.806;2022-08-19T07:01:57;22.50;99.90
35668;DHT22;22158;59.280;17.806;2022-08-19T07:04:26;22.50;99.90
35668;DHT22;22158;59.280;17.806;2022-08-19T07:06:59;22.50;99.90
35668;DHT22;22158;59.280;17.806;2022-08-19T07:09:25;22.60;99.90
35668;DHT22;22158;59.280;17.806;2022-08-19T07:11:52;22.60;99.90
35668;DHT22;22158;59.280;17.806;2022-08-19T07:14:24;22.70;99.90
35668;DHT22;22158;59.280;17.806;2022-08-19T07:16:51;22.90;99.90
35668;DHT22;22158;59.280;17.806;2022-08-19T07:19:19;23.00;99.90
35668;DHT22;22158;59.280;17.806;2022-08-19T07:21:48;23.00;99.90
35668;DHT22;22158;59.280;17.806;2022-08-19T07:24:15;23.10;99.90
35668;DHT22;22158;59.280;17.806;2022-08-19T07:26:42;23.10;99.90
35668;DHT22;22158;59.280;17.806;2022-08-19T07:29:09;23.20;99.90
35668;DHT22;22158;59.280;17.806;2022-08-19T07:31:35;23.20;99.90
35668;DHT22;22158;59.280;17.806;2022-08-19T07:34:07;23.40;99.90
35668;DHT22;22158;59.280;17.806;2022-08-19T07:36:35;23.50;99.90
35668;DHT22;22158;59.280;17.806;2022-08-19T07:39:05;23.50;99.90
35668;DHT22;22158;59.280;17.806;2022-08-19T07:41:32;23.60;99.90
35668;DHT22;22158;59.280;17.806;2022-08-19T07:43:59;23.70;99.90
35668;DHT22;22158;59.280;17.806;2022-08-19T07:46:32;23.80;99.90
35668;DHT22;22158;59.280;17.806;2022-08-19T07:48:58;23.90;99.90
35668;DHT22;22158;59.280;17.806;2022-08-19T07:51:26;24.00;99.90
35668;DHT22;22158;59.280;17.806;2022-08-19T07:53:52;24.00;99.90
35668;DHT22;22158;59.280;17.806;2022-08-19T07:56:19;24.10;99.90
35668;DHT22;22158;59.280;17.806;2022-08-19T07:58:48;24.20;99.90
35668;DHT22;22158;59.280;17.806;2022-08-19T08:01:25;24.40;99.90
35668;DHT22;22158;59.280;17.806;2022-08-19T08:03:52;24.50;99.90
35668;DHT22;22158;59.280;17.806;2022-08-19T08:06:37;24.60;99.90
35668;DHT22;22158;59.280;17.806;2022-08-19T08:09:32;24.70;99.90
35668;DHT22;22158;59.280;17.806;2022-08-19T08:12:01;24.80;99.90
35668;DHT22;22158;59.280;17.806;2022-08-19T08:14:30;24.90;99.90
35668;DHT22;22158;59.280;17.806;2022-08-19T08:16:57;24.90;99.90
35668;DHT22;22158;59.280;17.806;2022-08-19T08:19:24;25.10;99.90
35668;DHT22;22158;59.280;17.806;2022-08-19T08:21:51;25.10;99.90
35668;DHT22;22158;59.280;17.806;2022-08-19T08:24:18;25.20;99.90
35668;DHT22;22158;59.280;17.806;2022-08-19T08:26:44;25.30;99.90
35668;DHT22;22158;59.280;17.806;2022-08-19T08:29:11;25.30;99.90
35668;DHT22;22158;59.280;17.806;2022-08-19T08:31:39;25.40;99.90
35668;DHT22;22158;59.280;17.806;2022-08-19T08:34:06;25.50;99.90
35668;DHT22;22158;59.280;17.806;2022-08-19T08:36:39;25.60;99.90
35668;DHT22;22158;59.280;17.806;2022-08-19T08:39:08;25.70;99.90
35668;DHT22;22158;59.280;17.806;2022-08-19T08:44:20;25.80;99.90
35668;DHT22;22158;59.280;17.806;2022-08-19T08:46:50;26.00;99.90
35668;DHT22;22158;59.280;17.806;2022-08-19T08:49:26;26.10;99.90
35668;DHT22;22158;59.280;17.806;2022-08-19T08:52:03;26.20;99.90
35668;DHT22;22158;59.280;17.806;2022-08-19T08:54:37;26.40;99.90
35668;DHT22;22158;59.280;17.806;2022-08-19T08:57:10;26.50;99.90
35668;DHT22;22158;59.280;17.806;2022-08-19T08:59:40;26.70;99.90
35668;DHT22;22158;59.280;17.806;2022-08-19T09:02:07;26.70;99.90
35668;DHT22;22158;59.280;17.806;2022-08-19T09:04:38;26.70;99.90
35668;DHT22;22158;59.280;17.806;2022-08-19T09:09:37;26.90;99.90
35668;DHT22;22158;59.280;17.806;2022-08-19T09:14:58;27.10;99.90
35668;DHT22;22158;59.280;17.806;2022-08-19T09:17:28;27.30;99.90
35668;DHT22;22158;59.280;17.806;2022-08-19T09:20:03;27.40;99.50
35668;DHT22;22158;59.280;17.806;2022-08-19T09:22:32;27.40;99.50
35668;DHT22;22158;59.280;17.806;2022-08-19T09:24:59;27.50;99.70
35668;DHT22;22158;59.280;17.806;2022-08-19T09:27:29;27.50;99.50
35668;DHT22;22158;59.280;17.806;2022-08-19T09:29:55;27.60;98.70
35668;DHT22;22158;59.280;17.806;2022-08-19T09:32:22;27.70;98.90
35668;DHT22;22158;59.280;17.806;2022-08-19T09:34:48;27.70;98.90
35668;DHT22;22158;59.280;17.806;2022-08-19T09:37:14;27.80;98.90
35668;DHT22;22158;59.280;17.806;2022-08-19T09:39:40;27.90;99.10
35668;DHT22;22158;59.280;17.806;2022-08-19T09:42:07;28.00;99.00
35668;DHT22;22158;59.280;17.806;2022-08-19T09:44:38;28.10;98.10
35668;DHT22;22158;59.280;17.806;2022-08-19T09:47:04;28.30;98.60
35668;DHT22;22158;59.280;17.806;2022-08-19T09:49:30;28.40;97.50
35668;DHT22;22158;59.280;17.806;2022-08-19T09:51:56;28.50;95.60
35668;DHT22;22158;59.280;17.806;2022-08-19T09:54:22;28.60;95.50
35668;DHT22;22158;59.280;17.806;2022-08-19T09:56:48;28.60;96.80
35668;DHT22;22158;59.280;17.806;2022-08-19T09:59:14;28.60;95.70
35668;DHT22;22158;59.280;17.806;2022-08-19T10:01:40;28.70;95.50
35668;DHT22;22158;59.280;17.806;2022-08-19T10:04:06;29.00;94.80
35668;DHT22;22158;59.280;17.806;2022-08-19T10:06:37;28.90;94.50
35668;DHT22;22158;59.280;17.806;2022-08-19T10:09:04;29.00;93.60
35668;DHT22;22158;59.280;17.806;2022-08-19T10:11:32;29.10;93.90
35668;DHT22;22158;59.280;17.806;2022-08-19T10:13:58;29.20;94.50
35668;DHT22;22158;59.280;17.806;2022-08-19T10:16:25;29.40;94.20
35668;DHT22;22158;59.280;17.806;2022-08-19T10:18:51;29.50;94.40
35668;DHT22;22158;59.280;17.806;2022-08-19T10:21:21;29.60;93.20
35668;DHT22;22158;59.280;17.806;2022-08-19T10:23:49;29.70;93.30
35668;DHT22;22158;59.280;17.806;2022-08-19T10:26:21;29.70;93.30
35668;DHT22;22158;59.280;17.806;2022-08-19T10:28:48;29.80;93.60
35668;DHT22;22158;59.280;17.806;2022-08-19T10:31:25;29.90;93.70
35668;DHT22;22158;59.280;17.806;2022-08-19T10:33:52;30.00;92.30
35668;DHT22;22158;59.280;17.806;2022-08-19T10:36:28;30.10;91.50
35668;DHT22;22158;59.280;17.806;2022-08-19T10:38:57;30.20;92.20
35668;DHT22;22158;59.280;17.806;2022-08-19T10:41:26;30.30;90.50
35668;DHT22;22158;59.280;17.806;2022-08-19T10:43:57;30.30;90.90
35668;DHT22;22158;59.280;17.806;2022-08-19T10:46:26;30.40;90.90
35668;DHT22;22158;59.280;17.806;2022-08-19T10:48:53;30.40;90.50
35668;DHT22;22158;59.280;17.806;2022-08-19T10:51:19;30.50;89.90
35668;DHT22;22158;59.280;17.806;2022-08-19T10:54:04;30.40;90.10
35668;DHT22;22158;59.280;17.806;2022-08-19T10:56:30;30.60;88.80
35668;DHT22;22158;59.280;17.806;2022-08-19T10:59:18;30.70;90.40
35668;DHT22;22158;59.280;17.806;2022-08-19T11:01:45;30.80;89.80
35668;DHT22;22158;59.280;17.806;2022-08-19T11:04:11;30.80;90.30
35668;DHT22;22158;59.280;17.806;2022-08-19T11:06:41;30.90;87.40
35668;DHT22;22158;59.280;17.806;2022-08-19T11:09:09;31.00;89.50
35668;DHT22;22158;59.280;17.806;2022-08-19T11:11:36;30.90;87.60
35668;DHT22;22158;59.280;17.806;2022-08-19T11:14:13;30.70;87.90
35668;DHT22;22158;59.280;17.806;2022-08-19T11:16:40;30.70;88.90
35668;DHT22;22158;59.280;17.806;2022-08-19T11:19:07;31.00;88.20
35668;DHT22;22158;59.280;17.806;2022-08-19T11:21:36;31.20;89.80
35668;DHT22;22158;59.280;17.806;2022-08-19T11:24:09;31.40;89.60
35668;DHT22;22158;59.280;17.806;2022-08-19T11:26:37;31.50;85.10
35668;DHT22;22158;59.280;17.806;2022-08-19T11:29:05;31.60;84.60
35668;DHT22;22158;59.280;17.806;2022-08-19T11:31:33;31.90;86.90
35668;DHT22;22158;59.280;17.806;2022-08-19T11:34:02;32.10;83.20
35668;DHT22;22158;59.280;17.806;2022-08-19T11:36:29;31.90;83.00
35668;DHT22;22158;59.280;17.806;2022-08-19T11:38:55;31.60;84.30
35668;DHT22;22158;59.280;17.806;2022-08-19T11:41:22;31.90;85.30
35668;DHT22;22158;59.280;17.806;2022-08-19T11:43:52;32.10;84.00
35668;DHT22;22158;59.280;17.806;2022-08-19T11:46:22;32.20;84.50
35668;DHT22;22158;59.280;17.806;2022-08-19T11:48:49;32.30;84.10
35668;DHT22;22158;59.280;17.806;2022-08-19T11:51:21;32.50;84.10
35668;DHT22;22158;59.280;17.806;2022-08-19T11:53:47;32.70;83.10
35668;DHT22;22158;59.280;17.806;2022-08-19T11:56:13;32.90;82.90
35668;DHT22;22158;59.280;17.806;2022-08-19T11:58:39;33.00;77.70
35668;DHT22;22158;59.280;17.806;2022-08-19T12:01:08;32.80;77.30
35668;DHT22;22158;59.280;17.806;2022-08-19T12:03:35;32.60;80.20
35668;DHT22;22158;59.280;17.806;2022-08-19T12:06:09;32.40;82.10
35668;DHT22;22158;59.280;17.806;2022-08-19T12:08:35;32.60;82.40
35668;DHT22;22158;59.280;17.806;2022-08-19T12:11:01;32.70;81.40
35668;DHT22;22158;59.280;17.806;2022-08-19T12:13:28;32.40;79.50
35668;DHT22;22158;59.280;17.806;2022-08-19T12:15:56;32.30;79.50
35668;DHT22;22158;59.280;17.806;2022-08-19T12:18:22;32.20;81.10
35668;DHT22;22158;59.280;17.806;2022-08-19T12:20:51;32.30;83.40
35668;DHT22;22158;59.280;17.806;2022-08-19T12:23:17;32.40;81.70
35668;DHT22;22158;59.280;17.806;2022-08-19T12:25:45;32.30;82.80
35668;DHT22;22158;59.280;17.806;2022-08-19T12:28:15;32.10;81.10
35668;DHT22;22158;59.280;17.806;2022-08-19T12:30:41;31.90;81.70
35668;DHT22;22158;59.280;17.806;2022-08-19T12:33:07;32.20;83.20
35668;DHT22;22158;59.280;17.806;2022-08-19T12:35:33;32.20;83.10
35668;DHT22;22158;59.280;17.806;2022-08-19T12:37:59;32.10;82.30
35668;DHT22;22158;59.280;17.806;2022-08-19T12:40:25;32.30;81.80
35668;DHT22;22158;59.280;17.806;2022-08-19T12:42:52;32.10;80.90
35668;DHT22;22158;59.280;17.806;2022-08-19T12:45:17;32.00;81.00
35668;DHT22;22158;59.280;17.806;2022-08-19T12:47:44;31.80;80.40
35668;DHT22;22158;59.280;17.806;2022-08-19T12:50:11;31.80;82.50
35668;DHT22;22158;59.280;17.806;2022-08-19T12:52:37;32.00;81.00
35668;DHT22;22158;59.280;17.806;2022-08-19T12:55:05;32.30;81.30
35668;DHT22;22158;59.280;17.806;2022-08-19T12:57:31;32.50;79.60
35668;DHT22;22158;59.280;17.806;2022-08-19T13:00:11;32.50;79.70
35668;DHT22;22158;59.280;17.806;2022-08-19T13:02:38;32.40;81.10
35668;DHT22;22158;59.280;17.806;2022-08-19T13:05:09;32.60;80.50
35668;DHT22;22158;59.280;17.806;2022-08-19T13:07:36;32.40;80.40
35668;DHT22;22158;59.280;17.806;2022-08-19T13:10:04;32.60;81.20
35668;DHT22;22158;59.280;17.806;2022-08-19T13:12:31;32.70;80.30
35668;DHT22;22158;59.280;17.806;2022-08-19T13:14:56;32.50;80.10
35668;DHT22;22158;59.280;17.806;2022-08-19T13:17:22;32.10;80.50
35668;DHT22;22158;59.280;17.806;2022-08-19T13:19:48;32.20;82.60
35668;DHT22;22158;59.280;17.806;2022-08-19T13:22:16;32.40;82.20
35668;DHT22;22158;59.280;17.806;2022-08-19T13:24:41;32.50;82.10
35668;DHT22;22158;59.280;17.806;2022-08-19T13:27:08;32.70;82.30
35668;DHT22;22158;59.280;17.806;2022-08-19T13:29:34;32.70;80.00
35668;DHT22;22158;59.280;17.806;2022-08-19T13:32:18;32.80;80.10
35668;DHT22;22158;59.280;17.806;2022-08-19T13:35:03;33.00;80.60
35668;DHT22;22158;59.280;17.806;2022-08-19T13:37:29;33.00;79.70
35668;DHT22;22158;59.280;17.806;2022-08-19T13:42:38;33.20;80.60
35668;DHT22;22158;59.280;17.806;2022-08-19T13:45:04;33.30;80.80
35668;DHT22;22158;59.280;17.806;2022-08-19T13:47:32;33.60;80.70
35668;DHT22;22158;59.280;17.806;2022-08-19T13:50:02;33.50;78.20
35668;DHT22;22158;59.280;17.806;2022-08-19T13:52:27;33.30;78.90
35668;DHT22;22158;59.280;17.806;2022-08-19T13:54:53;32.90;78.90
35668;DHT22;22158;59.280;17.806;2022-08-19T13:57:19;32.60;80.40
35668;DHT22;22158;59.280;17.806;2022-08-19T13:59:45;32.70;79.50
35668;DHT22;22158;59.280;17.806;2022-08-19T14:02:10;32.80;81.40
35668;DHT22;22158;59.280;17.806;2022-08-19T14:04:36;32.50;80.40
35668;DHT22;22158;59.280;17.806;2022-08-19T14:07:03;32.20;80.80
35668;DHT22;22158;59.280;17.806;2022-08-19T14:09:29;31.80;80.70
35668;DHT22;22158;59.280;17.806;2022-08-19T14:11:55;31.50;82.80
35668;DHT22;22158;59.280;17.806;2022-08-19T14:14:21;31.30;83.40
35668;DHT22;22158;59.280;17.806;2022-08-19T14:16:47;31.10;83.30
35668;DHT22;22158;59.280;17.806;2022-08-19T14:19:13;30.90;83.40
35668;DHT22;22158;59.280;17.806;2022-08-19T14:21:39;30.70;83.80
35668;DHT22;22158;59.280;17.806;2022-08-19T14:24:06;30.50;84.70
35668;DHT22;22158;59.280;17.806;2022-08-19T14:26:32;30.20;84.60
35668;DHT22;22158;59.280;17.806;2022-08-19T14:28:58;30.20;85.00
35668;DHT22;22158;59.280;17.806;2022-08-19T14:31:24;30.20;86.50
35668;DHT22;22158;59.280;17.806;2022-08-19T14:33:50;30.00;85.70
35668;DHT22;22158;59.280;17.806;2022-08-19T14:36:18;30.00;86.10
35668;DHT22;22158;59.280;17.806;2022-08-19T14:38:44;30.10;85.30
35668;DHT22;22158;59.280;17.806;2022-08-19T14:41:19;30.00;85.70
35668;DHT22;22158;59.280;17.806;2022-08-19T14:43:47;30.00;86.10
35668;DHT22;22158;59.280;17.806;2022-08-19T14:46:20;30.00;84.80
35668;DHT22;22158;59.280;17.806;2022-08-19T14:48:47;30.30;85.80
35668;DHT22;22158;59.280;17.806;2022-08-19T14:51:13;30.60;85.80
35668;DHT22;22158;59.280;17.806;2022-08-19T14:53:40;31.00;84.20
35668;DHT22;22158;59.280;17.806;2022-08-19T14:56:11;31.40;83.10
35668;DHT22;22158;59.280;17.806;2022-08-19T14:58:39;31.70;81.40
35668;DHT22;22158;59.280;17.806;2022-08-19T15:01:06;32.00;82.10
35668;DHT22;22158;59.280;17.806;2022-08-19T15:03:33;32.30;81.20
35668;DHT22;22158;59.280;17.806;2022-08-19T15:06:03;32.40;80.80
35668;DHT22;22158;59.280;17.806;2022-08-19T15:08:31;32.50;79.00
35668;DHT22;22158;59.280;17.806;2022-08-19T15:10:58;32.60;79.70
35668;DHT22;22158;59.280;17.806;2022-08-19T15:13:25;32.80;79.30
35668;DHT22;22158;59.280;17.806;2022-08-19T15:15:52;33.00;78.20
35668;DHT22;22158;59.280;17.806;2022-08-19T15:18:19;33.10;77.20
35668;DHT22;22158;59.280;17.806;2022-08-19T15:20:46;33.00;76.50
35668;DHT22;22158;59.280;17.806;2022-08-19T15:23:16;32.80;77.60
35668;DHT22;22158;59.280;17.806;2022-08-19T15:25:42;32.60;78.20
35668;DHT22;22158;59.280;17.806;2022-08-19T15:28:09;32.30;78.50
35668;DHT22;22158;59.280;17.806;2022-08-19T15:30:39;32.00;78.50
35668;DHT22;22158;59.280;17.806;2022-08-19T15:33:05;32.10;79.80